地図

経路データ

SID SEASON NUMBER BASIN SUBBASIN NAME ISO_TIME NATURE LAT LON WMO_WIND WMO_PRES WMO_AGENCY TRACK_TYPE DIST2LAND LANDFALL IFLAG USA_AGENCY USA_ATCF_ID USA_LAT USA_LON USA_RECORD USA_STATUS USA_WIND USA_PRES USA_SSHS USA_R34_NE USA_R34_SE USA_R34_SW USA_R34_NW USA_R50_NE USA_R50_SE USA_R50_SW USA_R50_NW USA_R64_NE USA_R64_SE USA_R64_SW USA_R64_NW USA_POCI USA_ROCI USA_RMW USA_EYE TOKYO_LAT TOKYO_LON TOKYO_GRADE TOKYO_WIND TOKYO_PRES TOKYO_R50_DIR TOKYO_R50_LONG TOKYO_R50_SHORT TOKYO_R30_DIR TOKYO_R30_LONG TOKYO_R30_SHORT TOKYO_LAND CMA_LAT CMA_LON CMA_CAT CMA_WIND CMA_PRES HKO_LAT HKO_LON HKO_CAT HKO_WIND HKO_PRES NEWDELHI_LAT NEWDELHI_LON NEWDELHI_GRADE NEWDELHI_WIND NEWDELHI_PRES NEWDELHI_CI NEWDELHI_DP NEWDELHI_POCI REUNION_LAT REUNION_LON REUNION_TYPE REUNION_WIND REUNION_PRES REUNION_TNUM REUNION_CI REUNION_RMW REUNION_R34_NE REUNION_R34_SE REUNION_R34_SW REUNION_R34_NW REUNION_R50_NE REUNION_R50_SE REUNION_R50_SW REUNION_R50_NW REUNION_R64_NE REUNION_R64_SE REUNION_R64_SW REUNION_R64_NW BOM_LAT BOM_LON BOM_TYPE BOM_WIND BOM_PRES BOM_TNUM BOM_CI BOM_RMW BOM_R34_NE BOM_R34_SE BOM_R34_SW BOM_R34_NW BOM_R50_NE BOM_R50_SE BOM_R50_SW BOM_R50_NW BOM_R64_NE BOM_R64_SE BOM_R64_SW BOM_R64_NW BOM_ROCI BOM_POCI BOM_EYE BOM_POS_METHOD BOM_PRES_METHOD NADI_LAT NADI_LON NADI_CAT NADI_WIND NADI_PRES WELLINGTON_LAT WELLINGTON_LON WELLINGTON_WIND WELLINGTON_PRES DS824_LAT DS824_LON DS824_STAGE DS824_WIND DS824_PRES TD9636_LAT TD9636_LON TD9636_STAGE TD9636_WIND TD9636_PRES TD9635_LAT TD9635_LON TD9635_WIND TD9635_PRES TD9635_ROCI NEUMANN_LAT NEUMANN_LON NEUMANN_CLASS NEUMANN_WIND NEUMANN_PRES MLC_LAT MLC_LON MLC_CLASS MLC_WIND MLC_PRES USA_GUST BOM_GUST BOM_GUST_PER REUNION_GUST REUNION_GUST_PER USA_SEAHGT USA_SEARAD_NE USA_SEARAD_SE USA_SEARAD_SW USA_SEARAD_NW STORM_SPEED STORM_DIR
1962046S17196 1962 20 SP MM NOT_NAMED 1962-02-14 12:00:00 TS -16.8000 -163.800 main 961 961 O________OO___ jtwc_sh SH161962 -16.8000 -163.800 -1 -16.8000 196.200 TC -16.8000 -163.800 2 19 102
1962046S17196 1962 20 SP MM NOT_NAMED 1962-02-14 15:00:00 TS -16.9980 -162.839 main 1069 1069 P________PP___ SH161962 -16.9936 -162.818 -1 -16.9936 -162.818 TC -17.0069 -162.881 2 18 103
1962046S17196 1962 20 SP MM NOT_NAMED 1962-02-14 18:00:00 TS -17.2064 -161.930 main 1167 1167 O________OP___ jtwc_sh SH161962 -17.2000 -161.900 -1 -17.2000 198.100 TC -17.2192 -161.989 2 17 105
1962046S17196 1962 20 SP MM NOT_NAMED 1962-02-14 21:00:00 TS -17.4387 -161.116 main 1255 1255 P________PP___ SH161962 -17.4346 -161.097 -1 -17.4346 -161.097 TC -17.4468 -161.152 2 15 109
1962046S17196 1962 20 SP MM NOT_NAMED 1962-02-15 00:00:00 TS -17.7000 -160.400 main 1336 1336 O________OO_O_ jtwc_sh SH161962 -17.7000 -160.400 -1 -17.7000 199.600 TC 35 -17.7000 -160.400 2 -17.7000 -160.400 TC 35 14 113
1962046S17196 1962 20 SP MM NOT_NAMED 1962-02-15 03:00:00 TS -17.9758 -159.763 main 1406 1406 P________PP_P_ SH161962 -17.9848 -159.747 -1 -17.9848 -159.747 TC 35 -17.9867 -159.755 2 -17.9178 -159.840 TC 35 13 117
1962046S17196 1962 20 SP MM NOT_NAMED 1962-02-15 06:00:00 TS -18.2809 -159.223 main 1477 1477 O________OP_O_ jtwc_sh SH161962 -18.3000 -159.200 -1 -18.3000 200.800 TC 35 -18.3034 -159.212 2 -18.2000 -159.300 TC 35 12 125
1962046S17196 1962 20 SP MM NOT_NAMED 1962-02-15 09:00:00 TS -18.6283 -158.766 main 1528 1528 P________PP_P_ SH161962 -18.6423 -158.747 -1 -18.6423 -158.747 TC 35 -18.6435 -158.764 2 -18.5850 -158.805 TC 35 11 133
1962046S17196 1962 20 SP MM NOT_NAMED 1962-02-15 12:00:00 TS -19.0000 -158.400 main 1582 1582 O________OO_O_ jtwc_sh SH161962 -19.0000 -158.400 -1 -19.0000 201.600 TC 35 -19.0000 -158.400 2 -19.0000 -158.400 TC 35 9 139
1962046S17196 1962 20 SP MM NOT_NAMED 1962-02-15 15:00:00 TS -19.3425 -158.117 main 1623 1623 P________PP_P_ SH161962 -19.3424 -158.120 -1 -19.3424 -158.120 TC 35 -19.3353 -158.115 2 -19.3498 -158.112 TC 35 8 146
1962046S17196 1962 20 SP MM NOT_NAMED 1962-02-15 18:00:00 TS -19.6972 -157.901 main 1658 1658 O________OP_O_ jtwc_sh SH161962 -19.7000 -157.900 -1 -19.7000 202.100 TC 35 -19.6887 -157.903 2 -19.7000 -157.900 TC 35 8 153
1962046S17196 1962 20 SP MM NOT_NAMED 1962-02-15 21:00:00 TS -20.0762 -157.718 main 1694 1694 P________PP_P_ SH161962 -20.0773 -157.722 -1 -20.0773 -157.722 TC 35 -20.0729 -157.714 2 -20.0774 -157.715 TC 37 9 155
1962046S17196 1962 20 SP MM NOT_NAMED 1962-02-16 00:00:00 TS -20.5000 -157.500 main 1731 1731 O________OO_O_ jtwc_sh SH161962 -20.5000 -157.500 -1 -20.5000 202.500 TC 35 -20.5000 -157.500 2 -20.5000 -157.500 TC 40 11 149
1962046S17196 1962 20 SP MM NOT_NAMED 1962-02-16 03:00:00 TS -20.9768 -157.134 main 1792 1792 P________PP_P_ SH161962 -20.9777 -157.115 -1 -20.9777 -157.115 TC 35 -20.9744 -157.135 2 -20.9776 -157.173 TC 42 12 144
1962046S17196 1962 20 SP MM NOT_NAMED 1962-02-16 06:00:00 TS -21.4978 -156.736 main 1853 1853 O________OP_O_ jtwc_sh SH161962 -21.5000 -156.700 -1 -21.5000 203.300 TC 35 -21.4910 -156.742 2 -21.5000 -156.800 TC 45 13 146
1962046S17196 1962 20 SP MM NOT_NAMED 1962-02-16 09:00:00 TS -22.0374 -156.370 main 1905 1905 P________PP_P_ SH161962 -22.0350 -156.348 -1 -22.0350 -156.348 TC 35 -22.0370 -156.379 2 -22.0426 -156.405 TC 42 13 152
1962046S17196 1962 20 SP MM NOT_NAMED 1962-02-16 12:00:00 TS -22.6000 -156.100 main 1962 1962 O________OO_O_ jtwc_sh SH161962 -22.6000 -156.100 -1 -22.6000 203.900 TC 35 -22.6000 -156.100 2 -22.6000 -156.100 TC 40 12 164
1962046S17196 1962 20 SP MM NOT_NAMED 1962-02-16 15:00:00 TS -23.1837 -156.000 main 2003 2003 P________PP_P_ SH161962 -23.1999 -156.005 -1 -23.1999 -156.005 TC 35 -23.1925 -155.996 2 -23.1424 -155.997 TC 37 12 175
1962046S17196 1962 20 SP MM NOT_NAMED 1962-02-16 18:00:00 TS -23.7736 -155.995 main 2036 2036 O________OP_O_ jtwc_sh SH161962 -23.8000 -156.000 -1 -23.8000 204.000 TC 35 -23.7944 -155.980 2 -23.7000 -156.000 TC 35 12 180
1962046S17196 1962 20 SP MM NOT_NAMED 1962-02-16 21:00:00 TS -24.3660 -156.011 main 2071 2071 P________PP_P_ SH161962 -24.3800 -156.015 -1 -24.3800 -156.015 TC 35 -24.3740 -155.999 2 -24.3300 -156.015 TC 35 11 181
1962046S17196 1962 20 SP MM NOT_NAMED 1962-02-17 00:00:00 TS -24.9000 -156.000 main 2101 2101 O________OO_O_ jtwc_sh SH161962 -24.9000 -156.000 -1 -24.9000 204.000 TC 35 -24.9000 -156.000 2 -24.9000 -156.000 TC 35 10 172
1962046S17196 1962 20 SP MM NOT_NAMED 1962-02-17 03:00:00 TS -25.3172 -155.867 main 2134 2134 P________PP_P_ SH161962 -25.3300 -155.865 -1 -25.3300 -155.865 TC 35 -25.3285 -155.872 2 -25.2800 -155.865 TC 35 8 161
1962046S17196 1962 20 SP MM NOT_NAMED 1962-02-17 06:00:00 TS -25.6757 -155.705 main 2176 2176 O________OP_O_ jtwc_sh SH161962 -25.7000 -155.700 -1 -25.7000 204.300 TC 35 -25.7026 -155.721 2 -25.6000 -155.700 TC 35 8 160
1962046S17196 1962 20 SP MM NOT_NAMED 1962-02-17 09:00:00 TS -26.0357 -155.577 main 2203 2203 P________PP_P_ SH161962 -26.0500 -155.577 -1 -26.0500 -155.577 TC 35 -26.0504 -155.585 2 -25.9925 -155.570 TC 35 8 166
1962046S17196 1962 20 SP MM NOT_NAMED 1962-02-17 12:00:00 TS -26.4000 -155.500 main 2237 2237 O________OO_O_ jtwc_sh SH161962 -26.4000 -155.500 -1 -26.4000 204.500 TC 35 -26.4000 -155.500 2 -26.4000 -155.500 TC 35 8 174
1962046S17196 1962 20 SP MM NOT_NAMED 1962-02-17 15:00:00 TS -26.7897 -155.485 main 2263 2263 P________PP_P_ SH161962 -26.7925 -155.463 -1 -26.7925 -155.463 TC 35 -26.7738 -155.495 2 -26.8000 -155.520 TC 35 8 182
1962046S17196 1962 20 SP MM NOT_NAMED 1962-02-17 18:00:00 TS -27.1925 -155.540 main 2290 2289 O________OP_O_ jtwc_sh SH161962 -27.2000 -155.500 -1 -27.2000 204.500 TC 35 -27.1701 -155.558 2 -27.2000 -155.600 TC 35 8 190
1962046S17196 1962 20 SP MM NOT_NAMED 1962-02-17 21:00:00 TS -27.5966 -155.654 main 2302 2302 P________PP_P_ SH161962 -27.6026 -155.625 -1 -27.6026 -155.625 TC 35 -27.5814 -155.667 2 -27.6000 -155.697 TC 35 8 196
1962046S17196 1962 20 SP MM NOT_NAMED 1962-02-18 00:00:00 TS -28.0000 -155.800 main 2323 O________OO_O_ jtwc_sh SH161962 -28.0000 -155.800 -1 -28.0000 204.200 TC 35 -28.0000 -155.800 2 -28.0000 -155.800 TC 35 9 198

デジタル台風データ・検索

IBTrACS Databaseについて

本データベースは、米国NOAAが公開する1842年以降の世界の熱帯低気圧のベストトラックデータアーカイブInternational Best Track Archive for Climate Stewardship (IBTrACS)を、ウェブで閲覧しやすい形式に変換したものです。

最終更新日:2021-11-26